Still River, Massachusetts
Current Conditions -  °F | °C
As of 8:52 PM on Tuesday 21 Oct 2014 (Local Time) from KFIT Reporting Station
Overcast Overcast  
Wind Chill: 55°   Ceiling: 800
Heat Index: 55°   Visibility: 9mi
Dew Point: 51°   Wind: 8mph
Humidity: 86%   Direction: 360°N
Pressure: 29.99"   Gusts: NA
Location:  42.49°N, 71.62°W
Report Text: KFIT 220052Z AUTO 36007KT 9SM OVC008 13/11 A2999 RMK AO2 SLP158 T01280106
Loading
Personal Weather Stations






























Interactive Weather Map New forecast layout! Learn more

10-Day Weather Forecast

Advertisements
Track Severe Weather on mobile